Time;durP1;ratioP1;P1;durP2;ratioP2;P2;SDS_P1;SDS_P2;PMS_P1;PMS_P2;Temp;Humidity;BMP_temperature;BMP_pressure;BME280_temperature;BME280_humidity;BME280_pressure;Samples;Min_cycle;Max_cycle;Signal;HPM_P1;HPM_P2
2024/01/14 00:02:05;;;;;;;3.92;1.52;;;;;;;3.68;100.00;101257.03;4776746;29;20031;-76
2024/01/14 00:04:30;;;;;;;6.65;1.65;;;;;;;3.71;100.00;101255.56;4766535;29;20074;-76
2024/01/14 00:06:55;;;;;;;6.43;1.63;;;;;;;3.62;100.00;101256.38;4772869;30;20114;-76
2024/01/14 00:09:21;;;;;;;4.25;1.98;;;;;;;3.41;100.00;101252.56;4777400;29;20028;-76
2024/01/14 00:11:46;;;;;;;2.15;1.52;;;;;;;3.60;100.00;101244.78;4780528;29;20487;-76
2024/01/14 00:14:12;;;;;;;4.68;1.55;;;;;;;3.60;100.00;101257.81;4776422;29;20023;-76
2024/01/14 00:16:37;;;;;;;7.22;1.65;;;;;;;3.63;100.00;101254.44;4777795;29;20032;-77
2024/01/14 00:19:06;;;;;;;4.70;2.08;;;;;;;3.48;100.00;101258.47;4776605;29;20043;-75
2024/01/14 00:21:32;;;;;;;2.60;1.83;;;;;;;3.53;100.00;101249.19;4775916;29;20027;-76
2024/01/14 00:23:57;;;;;;;5.50;1.98;;;;;;;3.37;100.00;101252.41;4778973;29;20039;-76
2024/01/14 00:26:24;;;;;;;6.30;2.20;;;;;;;3.31;100.00;101245.38;4772088;29;20129;-78
2024/01/14 00:28:58;;;;;;;2.63;1.27;;;;;;;3.37;100.00;101243.25;4782981;29;20811;-77
2024/01/14 00:31:24;;;;;;;4.75;1.55;;;;;;;3.41;100.00;101247.03;4787390;29;20057;-76
2024/01/14 00:33:50;;;;;;;6.38;2.75;;;;;;;3.38;100.00;101237.41;4784093;29;20039;-76
2024/01/14 00:36:16;;;;;;;6.15;2.05;;;;;;;3.36;100.00;101238.88;4781684;29;20027;-76
2024/01/14 00:38:42;;;;;;;4.03;1.45;;;;;;;3.48;100.00;101225.25;4783187;29;20514;-73
2024/01/14 00:41:07;;;;;;;5.50;2.10;;;;;;;3.51;100.00;101234.84;4783296;29;20104;-73
2024/01/14 00:43:33;;;;;;;8.40;1.85;;;;;;;3.61;100.00;101240.91;4779502;29;20027;-73
2024/01/14 00:45:58;;;;;;;3.47;1.45;;;;;;;3.58;100.00;101235.19;4779795;29;20042;-74
2024/01/14 00:48:24;;;;;;;6.63;2.08;;;;;;;3.62;100.00;101230.66;4781842;29;20060;-73
2024/01/14 00:50:49;;;;;;;4.18;1.65;;;;;;;3.55;100.00;101230.31;4777357;30;20028;-73
2024/01/14 00:53:14;;;;;;;8.63;1.52;;;;;;;3.52;100.00;101225.41;4774064;30;20031;-73
2024/01/14 00:55:40;;;;;;;8.10;1.65;;;;;;;3.58;100.00;101218.59;4784474;29;20038;-74
2024/01/14 00:58:05;;;;;;;5.13;1.70;;;;;;;3.63;100.00;101204.59;4784922;29;20406;-73
2024/01/14 01:00:31;;;;;;;4.97;1.95;;;;;;;3.70;100.00;101210.47;4778265;29;20142;-73
2024/01/14 01:02:56;;;;;;;11.40;2.00;;;;;;;3.66;100.00;101203.94;4785241;29;20035;-73
2024/01/14 01:05:22;;;;;;;5.75;1.35;;;;;;;3.66;100.00;101201.19;4780321;29;20093;-74
2024/01/14 01:07:47;;;;;;;10.05;1.65;;;;;;;3.71;100.00;101192.75;4781543;29;20521;-73
2024/01/14 01:10:13;;;;;;;2.50;1.35;;;;;;;3.66;100.00;101187.34;4783506;29;20550;-73
2024/01/14 01:12:38;;;;;;;2.30;1.45;;;;;;;3.66;100.00;101190.09;4779904;29;20043;-73
2024/01/14 01:15:05;;;;;;;2.47;1.20;;;;;;;3.58;100.00;101185.38;4785588;29;20040;-73
2024/01/14 01:17:31;;;;;;;3.47;1.40;;;;;;;3.53;100.00;101177.22;4780742;29;20514;-73
2024/01/14 01:19:58;;;;;;;6.78;1.45;;;;;;;3.53;100.00;101175.28;4780750;29;20047;-75
2024/01/14 01:22:23;;;;;;;3.97;1.65;;;;;;;3.62;100.00;101183.59;4780287;29;20047;-73
2024/01/14 01:24:49;;;;;;;5.40;1.55;;;;;;;3.63;100.00;101168.63;4778849;29;20040;-73
2024/01/14 01:27:14;;;;;;;10.32;1.80;;;;;;;3.61;100.00;101179.19;4782493;29;20063;-72
2024/01/14 01:29:39;;;;;;;11.10;1.52;;;;;;;3.63;100.00;101176.94;4779317;29;20039;-73
2024/01/14 01:32:05;;;;;;;4.70;1.33;;;;;;;3.55;100.00;101172.19;4783803;29;20046;-74
2024/01/14 01:34:30;;;;;;;4.90;1.20;;;;;;;3.59;100.00;101173.16;4780505;29;20153;-73
2024/01/14 01:36:55;;;;;;;1.83;1.02;;;;;;;3.54;100.00;101168.63;4781808;29;20038;-76
2024/01/14 01:39:21;;;;;;;2.95;1.35;;;;;;;3.64;100.00;101161.94;4780104;29;20042;-72
2024/01/14 01:41:47;;;;;;;4.57;1.17;;;;;;;3.56;100.00;101166.31;4781515;29;20035;-75
2024/01/14 01:44:13;;;;;;;5.32;1.73;;;;;;;3.56;100.00;101160.78;4781587;29;20083;-74
2024/01/14 01:46:39;;;;;;;3.92;1.15;;;;;;;3.47;100.00;101163.53;4783588;29;20039;-76
2024/01/14 01:49:04;;;;;;;4.60;1.10;;;;;;;3.54;100.00;101153.94;4777319;29;20119;-76
2024/01/14 01:51:30;;;;;;;9.63;1.67;;;;;;;3.58;100.00;101160.47;4783834;29;20035;-76
2024/01/14 01:53:56;;;;;;;4.75;1.60;;;;;;;3.52;100.00;101154.28;4794920;29;20476;-75
2024/01/14 01:56:23;;;;;;;3.97;1.10;;;;;;;3.58;100.00;101152.97;4780623;29;20158;-76
2024/01/14 01:58:49;;;;;;;3.92;1.20;;;;;;;3.57;100.00;101156.88;4776939;29;20106;-76
2024/01/14 02:01:14;;;;;;;3.65;1.42;;;;;;;3.55;100.00;101145.31;4780580;29;20039;-76
2024/01/14 02:03:40;;;;;;;3.65;1.25;;;;;;;3.53;100.00;101144.81;4779276;29;20038;-76
2024/01/14 02:06:09;;;;;;;4.93;1.30;;;;;;;3.63;100.00;101146.47;4780700;29;20039;-76
2024/01/14 02:08:36;;;;;;;3.03;1.00;;;;;;;3.59;100.00;101139.97;4787329;29;20340;-76
2024/01/14 02:11:01;;;;;;;5.80;1.42;;;;;;;3.68;100.00;101146.31;4776875;29;20039;-76
2024/01/14 02:13:27;;;;;;;3.60;1.33;;;;;;;3.63;100.00;101149.25;4780682;29;20035;-76
2024/01/14 02:15:52;;;;;;;3.88;1.17;;;;;;;3.66;100.00;101145.81;4776030;29;20039;-76
2024/01/14 02:18:17;;;;;;;5.60;1.20;;;;;;;3.62;100.00;101139.28;4777783;29;20058;-76
2024/01/14 02:20:43;;;;;;;3.15;1.38;;;;;;;3.67;100.00;101139.16;4768951;29;20132;-76
2024/01/14 02:23:12;;;;;;;1.05;0.85;;;;;;;3.65;100.00;101141.44;4775333;29;20035;-76
2024/01/14 02:25:38;;;;;;;6.60;1.45;;;;;;;3.62;100.00;101142.06;4787685;29;20399;-76
2024/01/14 02:28:04;;;;;;;4.28;1.23;;;;;;;3.68;100.00;101140.75;4773141;29;20050;-76
2024/01/14 02:30:30;;;;;;;6.57;1.02;;;;;;;3.70;100.00;101135.72;4774750;29;20043;-76
2024/01/14 02:32:55;;;;;;;8.60;1.65;;;;;;;3.69;100.00;101136.88;4777860;29;20494;-76
2024/01/14 02:35:20;;;;;;;2.90;1.05;;;;;;;3.71;100.00;101137.38;4777985;29;20045;-76
2024/01/14 02:37:47;;;;;;;5.07;1.10;;;;;;;3.69;100.00;101125.81;4773298;29;20076;-76
2024/01/14 02:40:13;;;;;;;6.32;1.17;;;;;;;3.69;100.00;101120.25;4780087;29;20509;-77
2024/01/14 02:42:39;;;;;;;9.82;1.38;;;;;;;3.74;100.00;101116.50;4773072;29;20035;-77
2024/01/14 02:45:07;;;;;;;7.35;1.42;;;;;;;3.69;100.00;101120.25;4780385;29;20439;-77
2024/01/14 02:47:33;;;;;;;8.35;1.60;;;;;;;3.77;100.00;101111.13;4774252;29;20119;-76
2024/01/14 02:49:58;;;;;;;4.43;1.02;;;;;;;3.80;100.00;101113.25;4775559;29;20083;-76
2024/01/14 02:52:23;;;;;;;8.70;1.27;;;;;;;3.82;100.00;101115.69;4775218;29;20533;-77
2024/01/14 02:54:49;;;;;;;8.38;1.30;;;;;;;3.80;100.00;101104.94;4777965;30;20035;-76
2024/01/14 02:57:14;;;;;;;6.90;1.00;;;;;;;3.83;100.00;101106.25;4777400;29;20079;-76
2024/01/14 02:59:39;;;;;;;4.95;1.13;;;;;;;3.84;100.00;101111.47;4777896;29;20041;-76
2024/01/14 03:02:05;;;;;;;2.80;0.80;;;;;;;3.89;100.00;101110.47;4774183;29;20031;-76
2024/01/14 03:04:30;;;;;;;5.65;1.23;;;;;;;3.87;100.00;101101.69;4779536;29;20126;-77
2024/01/14 03:06:56;;;;;;;4.53;1.23;;;;;;;3.81;100.00;101112.09;4776753;29;20031;-76
2024/01/14 03:09:21;;;;;;;2.67;1.25;;;;;;;3.75;100.00;101102.31;4776272;29;20805;-76
2024/01/14 03:11:47;;;;;;;3.90;1.00;;;;;;;3.80;100.00;101102.19;4777865;29;20031;-76
2024/01/14 03:14:12;;;;;;;8.32;1.17;;;;;;;3.82;100.00;101101.84;4782802;29;20031;-75
2024/01/14 03:16:38;;;;;;;8.75;1.52;;;;;;;3.72;100.00;101103.00;4788187;29;20054;-76
2024/01/14 03:19:03;;;;;;;6.97;1.15;;;;;;;3.76;100.00;101098.44;4775970;29;20050;-75
2024/01/14 03:21:28;;;;;;;1.92;0.93;;;;;;;3.84;100.00;101089.31;4778930;29;20038;-76
2024/01/14 03:23:54;;;;;;;8.18;2.30;;;;;;;3.77;100.00;101088.97;4776658;29;20141;-76
2024/01/14 03:26:19;;;;;;;5.70;1.15;;;;;;;3.82;100.00;101082.47;4778302;29;20055;-77
2024/01/14 03:28:44;;;;;;;2.05;1.00;;;;;;;3.83;100.00;101082.13;4776532;29;20160;-77
2024/01/14 03:31:14;;;;;;;3.22;1.40;;;;;;;3.71;100.00;101086.69;4781318;29;20115;-77
2024/01/14 03:33:40;;;;;;;7.20;1.17;;;;;;;3.65;100.00;101086.06;4780699;29;20023;-76
2024/01/14 03:36:06;;;;;;;12.32;1.75;;;;;;;3.57;100.00;101084.09;4779602;29;20046;-76
2024/01/14 03:38:31;;;;;;;7.40;1.35;;;;;;;3.56;100.00;101072.19;4779585;29;20023;-76
2024/01/14 03:40:56;;;;;;;7.15;1.77;;;;;;;3.67;100.00;101078.25;4779991;29;20042;-77
2024/01/14 03:43:22;;;;;;;6.13;1.45;;;;;;;3.74;100.00;101075.78;4780788;30;20420;-76
2024/01/14 03:45:47;;;;;;;9.70;1.88;;;;;;;3.73;100.00;101076.94;4782190;29;20035;-76
2024/01/14 03:48:12;;;;;;;4.60;1.52;;;;;;;3.64;100.00;101076.91;4776518;29;20056;-76
2024/01/14 03:50:38;;;;;;;4.90;1.35;;;;;;;3.71;100.00;101070.91;4780045;29;20084;-75
2024/01/14 03:53:03;;;;;;;7.85;1.25;;;;;;;3.73;100.00;101074.19;4779080;29;20039;-76
2024/01/14 03:55:28;;;;;;;6.28;1.13;;;;;;;3.79;100.00;101075.59;4782954;29;20032;-75
2024/01/14 03:57:54;;;;;;;2.25;1.10;;;;;;;3.74;100.00;101073.03;4782421;29;20027;-75
2024/01/14 04:00:19;;;;;;;1.33;0.75;;;;;;;3.78;100.00;101062.13;4781884;29;20441;-76
2024/01/14 04:02:45;;;;;;;2.75;1.10;;;;;;;3.80;100.00;101080.03;4778148;29;20963;-76
2024/01/14 04:05:10;;;;;;;4.43;0.88;;;;;;;3.75;100.00;101074.63;4782269;29;20056;-76
2024/01/14 04:07:36;;;;;;;4.28;1.50;;;;;;;3.69;100.00;101069.59;4783756;29;20039;-76
2024/01/14 04:10:01;;;;;;;2.88;0.95;;;;;;;3.77;100.00;101063.25;4781960;29;20088;-76
2024/01/14 04:12:28;;;;;;;6.05;1.00;;;;;;;3.78;100.00;101062.91;4784318;29;20092;-76
2024/01/14 04:14:55;;;;;;;6.25;1.27;;;;;;;3.58;100.00;101052.50;4781941;29;20047;-76
2024/01/14 04:17:21;;;;;;;5.40;0.98;;;;;;;3.57;100.00;101050.91;4780978;29;20035;-75
2024/01/14 04:19:46;;;;;;;5.47;1.05;;;;;;;3.58;100.00;101041.44;4781969;29;20050;-76
2024/01/14 04:22:12;;;;;;;2.72;1.08;;;;;;;3.63;100.00;101033.78;4786146;29;20037;-76
2024/01/14 04:24:44;;;;;;;9.73;1.98;;;;;;;3.63;100.00;101025.47;4782795;29;20035;-76
2024/01/14 04:27:09;;;;;;;2.78;2.05;;;;;;;3.65;100.00;101022.41;4783395;29;20087;-76
2024/01/14 04:29:34;;;;;;;5.68;1.17;;;;;;;3.63;100.00;101019.13;4778636;29;20043;-76
2024/01/14 04:32:00;;;;;;;6.53;1.08;;;;;;;3.68;100.00;101030.03;4781838;29;20039;-76
2024/01/14 04:34:25;;;;;;;8.07;2.05;;;;;;;3.63;100.00;101014.41;4781553;29;20028;-76
2024/01/14 04:36:50;;;;;;;4.10;1.20;;;;;;;3.60;100.00;101014.25;4782788;29;20034;-76
2024/01/14 04:39:16;;;;;;;1.80;0.70;;;;;;;3.56;100.00;101016.03;4784576;29;20059;-76
2024/01/14 04:41:41;;;;;;;5.07;1.20;;;;;;;3.57;100.00;101010.19;4780016;29;20134;-76
2024/01/14 04:44:06;;;;;;;4.80;1.00;;;;;;;3.53;100.00;101005.63;4782642;30;20058;-76
2024/01/14 04:46:32;;;;;;;3.45;0.95;;;;;;;3.42;100.00;100996.84;4782390;29;20047;-77
2024/01/14 04:48:58;;;;;;;1.25;0.80;;;;;;;3.42;100.00;101005.16;4780867;29;20051;-77
2024/01/14 04:51:23;;;;;;;7.97;1.15;;;;;;;3.49;100.00;101005.47;4780784;29;20329;-76
2024/01/14 04:53:48;;;;;;;4.15;1.20;;;;;;;3.56;100.00;101002.19;4779186;29;20042;-77
2024/01/14 04:56:14;;;;;;;1.98;1.30;;;;;;;3.60;100.00;101003.16;4781376;29;20051;-77
2024/01/14 04:58:40;;;;;;;3.33;1.00;;;;;;;3.53;100.00;100997.34;4783076;30;20045;-77
2024/01/14 05:01:05;;;;;;;6.07;1.65;;;;;;;3.55;100.00;100997.81;4780914;29;20132;-76
2024/01/14 05:03:31;;;;;;;3.63;1.30;;;;;;;3.52;100.00;100996.53;4784721;29;20039;-76
2024/01/14 05:05:56;;;;;;;3.33;0.70;;;;;;;3.51;100.00;100997.66;4777315;29;20198;-76
2024/01/14 05:08:22;;;;;;;0.65;0.55;;;;;;;3.50;100.00;100992.44;4773865;29;20118;-76
2024/01/14 05:10:47;;;;;;;6.45;1.25;;;;;;;3.55;100.00;100997.81;4778708;29;20050;-76
2024/01/14 05:13:13;;;;;;;4.38;1.00;;;;;;;3.59;100.00;101004.31;4778260;29;20035;-76
2024/01/14 05:15:38;;;;;;;2.38;0.95;;;;;;;3.48;100.00;100992.78;4776817;29;20035;-76
2024/01/14 05:18:04;;;;;;;4.80;0.88;;;;;;;3.49;100.00;100990.81;4781464;29;20486;-75
2024/01/14 05:20:29;;;;;;;4.55;1.00;;;;;;;3.43;100.00;100985.44;4787787;29;20124;-76
2024/01/14 05:22:54;;;;;;;3.33;1.00;;;;;;;3.49;100.00;100983.31;4785466;29;20046;-76
2024/01/14 05:25:21;;;;;;;6.68;1.15;;;;;;;3.50;100.00;100989.66;4784727;29;20084;-76
2024/01/14 05:27:46;;;;;;;6.90;1.77;;;;;;;3.45;100.00;100980.38;4781728;29;20515;-76
2024/01/14 05:30:12;;;;;;;2.72;0.93;;;;;;;3.42;100.00;100992.13;4781949;29;20041;-76
2024/01/14 05:32:38;;;;;;;6.35;1.83;;;;;;;3.44;100.00;100976.00;4776954;29;20066;-77
2024/01/14 05:35:04;;;;;;;6.38;1.20;;;;;;;3.39;100.00;100978.94;4777356;29;20116;-76
2024/01/14 05:37:31;;;;;;;1.70;0.95;;;;;;;3.46;100.00;100989.53;4775806;29;20070;-76
2024/01/14 05:39:56;;;;;;;5.50;1.58;;;;;;;3.46;100.00;100984.81;4777561;29;20023;-76
2024/01/14 05:42:22;;;;;;;3.63;0.98;;;;;;;3.46;100.00;100984.00;4775206;29;20078;-76
2024/01/14 05:44:47;;;;;;;6.53;1.50;;;;;;;3.43;100.00;100985.44;4777491;29;20592;-76
2024/01/14 05:47:13;;;;;;;5.13;1.50;;;;;;;3.40;100.00;100972.28;4776258;29;20028;-76
2024/01/14 05:49:38;;;;;;;8.63;1.55;;;;;;;3.43;100.00;100968.84;4780329;29;20079;-76
2024/01/14 05:52:04;;;;;;;5.80;1.90;;;;;;;3.49;100.00;100965.91;4777505;29;20514;-76
2024/01/14 05:54:29;;;;;;;3.70;1.60;;;;;;;3.42;100.00;100960.88;4777294;29;22174;-76
2024/01/14 05:56:55;;;;;;;2.85;1.40;;;;;;;3.42;100.00;100960.88;4777124;29;20038;-76
2024/01/14 05:59:20;;;;;;;8.77;1.83;;;;;;;3.38;100.00;100959.91;4774717;29;20487;-76
2024/01/14 06:01:46;;;;;;;8.50;1.70;;;;;;;3.34;100.00;100948.66;4777049;29;20039;-76
2024/01/14 06:04:11;;;;;;;8.65;2.35;;;;;;;3.26;100.00;100941.19;4774780;29;20054;-75
2024/01/14 06:06:36;;;;;;;7.22;3.65;;;;;;;3.34;100.00;100948.66;4779116;29;20118;-76
2024/01/14 06:09:02;;;;;;;5.75;2.60;;;;;;;3.35;100.00;100936.47;4776343;29;20036;-76
2024/01/14 06:11:29;;;;;;;9.02;3.42;;;;;;;3.24;100.00;100933.22;4774919;29;20039;-75
2024/01/14 06:13:55;;;;;;;10.95;3.72;;;;;;;3.36;100.00;100935.31;4777527;29;20145;-76
2024/01/14 06:16:20;;;;;;;6.97;3.58;;;;;;;3.36;100.00;100929.78;4771559;29;20051;-76
2024/01/14 06:18:46;;;;;;;9.57;3.97;;;;;;;3.39;100.00;100928.31;4776163;29;20082;-76
2024/01/14 06:21:11;;;;;;;14.40;4.93;;;;;;;3.44;100.00;100934.50;4775606;29;20043;-76
2024/01/14 06:23:36;;;;;;;6.22;4.00;;;;;;;3.59;100.00;100933.16;4775035;29;20222;-75
2024/01/14 06:26:02;;;;;;;14.20;4.07;;;;;;;3.50;100.00;100921.31;4776344;29;20118;-76
2024/01/14 06:28:27;;;;;;;7.07;3.95;;;;;;;3.40;100.00;100924.41;4778220;29;20118;-76
2024/01/14 06:30:53;;;;;;;10.05;4.07;;;;;;;3.50;100.00;100918.56;4777572;29;20483;-76
2024/01/14 06:33:18;;;;;;;10.13;4.75;;;;;;;3.41;100.00;100913.00;4773362;29;20039;-76
2024/01/14 06:35:43;;;;;;;9.98;4.63;;;;;;;3.49;100.00;100916.09;4772823;29;20088;-76
2024/01/14 06:38:09;;;;;;;15.10;4.97;;;;;;;3.40;100.00;100913.34;4776868;29;20085;-73
2024/01/14 06:40:35;;;;;;;13.63;5.40;;;;;;;3.36;100.00;100906.84;4776758;29;20035;-74
2024/01/14 06:43:00;;;;;;;12.95;4.78;;;;;;;3.38;100.00;100904.56;4777833;29;20043;-75
2024/01/14 06:45:25;;;;;;;6.75;3.75;;;;;;;3.42;100.00;100903.56;4788239;29;20035;-75
2024/01/14 06:47:51;;;;;;;16.42;5.65;;;;;;;3.41;100.00;100893.63;4775859;29;20043;-73
2024/01/14 06:50:16;;;;;;;7.90;5.07;;;;;;;3.37;100.00;100895.47;4775947;29;20050;-73
2024/01/14 06:52:42;;;;;;;17.13;4.95;;;;;;;3.41;100.00;100893.63;4773348;29;20078;-73
2024/01/14 06:55:08;;;;;;;9.45;4.65;;;;;;;3.39;100.00;100895.91;4775665;29;20031;-73
2024/01/14 06:57:33;;;;;;;9.02;5.28;;;;;;;3.37;100.00;100898.22;4779420;29;20510;-73
2024/01/14 07:00:00;;;;;;;8.63;5.38;;;;;;;3.38;100.00;100894.31;4774931;30;20039;-74
2024/01/14 07:02:26;;;;;;;14.55;5.68;;;;;;;3.38;100.00;100899.03;4770023;29;20593;-75
2024/01/14 07:04:52;;;;;;;9.15;5.93;;;;;;;3.35;100.00;100900.50;4776415;29;20054;-73
2024/01/14 07:07:17;;;;;;;15.23;6.40;;;;;;;3.45;100.00;100900.13;4773279;29;20380;-73
2024/01/14 07:09:43;;;;;;;17.27;6.22;;;;;;;3.32;100.00;100894.81;4773573;29;20438;-75
2024/01/14 07:12:08;;;;;;;21.17;6.68;;;;;;;3.29;100.00;100895.44;4776497;29;20032;-73
2024/01/14 07:14:34;;;;;;;16.80;7.80;;;;;;;3.27;100.00;100901.34;4776475;29;20474;-73
2024/01/14 07:17:00;;;;;;;15.82;5.72;;;;;;;3.35;100.00;100902.44;4773785;29;20027;-73
2024/01/14 07:19:25;;;;;;;20.48;7.55;;;;;;;3.35;100.00;100903.28;4774755;29;20050;-75
2024/01/14 07:21:51;;;;;;;15.50;7.00;;;;;;;3.30;100.00;100903.44;4773785;29;20388;-75
2024/01/14 07:24:16;;;;;;;16.10;7.68;;;;;;;3.22;100.00;100901.50;4774145;29;20105;-74
2024/01/14 07:26:42;;;;;;;20.45;8.85;;;;;;;3.26;100.00;100903.25;4773627;29;20044;-73
2024/01/14 07:29:07;;;;;;;22.58;10.00;;;;;;;3.27;100.00;100898.56;4773928;29;20042;-73
2024/01/14 07:31:33;;;;;;;22.92;9.65;;;;;;;3.27;100.00;100881.97;4774484;29;20034;-73
2024/01/14 07:33:58;;;;;;;23.67;9.95;;;;;;;3.28;100.00;100889.13;4778970;29;20046;-73
2024/01/14 07:36:24;;;;;;;23.88;10.98;;;;;;;3.33;100.00;100891.72;4774091;29;20069;-73
2024/01/14 07:38:53;;;;;;;23.67;9.57;;;;;;;3.28;100.00;100883.59;4777191;29;20043;-76
2024/01/14 07:41:19;;;;;;;28.17;14.15;;;;;;;3.27;100.00;100884.75;4779641;29;20138;-76
2024/01/14 07:43:44;;;;;;;23.42;13.15;;;;;;;3.31;100.00;100893.16;4776496;29;20118;-77
2024/01/14 07:46:11;;;;;;;30.48;13.48;;;;;;;3.17;100.00;100898.91;4778442;29;20562;-77
2024/01/14 07:48:36;;;;;;;34.08;14.93;;;;;;;3.23;100.00;100903.94;4783621;29;20059;-77
2024/01/14 07:51:02;;;;;;;41.13;15.68;;;;;;;3.24;100.00;100899.22;4783552;29;20031;-76
2024/01/14 07:53:28;;;;;;;31.17;14.25;;;;;;;3.33;100.00;100899.19;4781260;29;20132;-77
2024/01/14 07:55:54;;;;;;;33.90;14.40;;;;;;;3.30;100.00;100903.44;4786581;29;20074;-77
2024/01/14 07:58:19;;;;;;;38.03;19.75;;;;;;;3.24;100.00;100904.75;4779368;29;20039;-76
2024/01/14 08:00:44;;;;;;;39.20;17.40;;;;;;;3.34;100.00;100909.13;4781720;29;20090;-76
2024/01/14 08:03:10;;;;;;;41.08;19.52;;;;;;;3.37;100.00;100909.28;4778240;29;20046;-77
2024/01/14 08:05:35;;;;;;;39.95;17.10;;;;;;;3.52;100.00;100912.66;4780965;29;20042;-77
2024/01/14 08:08:02;;;;;;;40.28;18.17;;;;;;;3.31;100.00;100905.06;4778549;29;20076;-76
2024/01/14 08:10:28;;;;;;;40.80;18.67;;;;;;;3.34;100.00;100909.94;4779142;30;20043;-77
2024/01/14 08:12:53;;;;;;;37.83;18.33;;;;;;;3.25;100.00;100900.84;4773825;29;20039;-77
2024/01/14 08:15:18;;;;;;;44.67;20.10;;;;;;;3.30;100.00;100899.88;4783440;29;20042;-77
2024/01/14 08:17:44;;;;;;;37.10;19.17;;;;;;;3.35;100.00;100908.81;4782423;29;20031;-76
2024/01/14 08:20:10;;;;;;;37.25;18.33;;;;;;;3.23;100.00;100900.38;4784880;29;20092;-77
2024/01/14 08:22:37;;;;;;;44.83;19.90;;;;;;;3.14;100.00;100896.78;4784935;29;20042;-77
2024/01/14 08:25:02;;;;;;;44.35;19.65;;;;;;;3.15;100.00;100890.13;4780322;29;20058;-77
2024/01/14 08:27:30;;;;;;;41.75;18.75;;;;;;;3.11;100.00;100892.72;4794407;29;20036;-76
2024/01/14 08:29:55;;;;;;;40.85;18.45;;;;;;;3.17;100.00;100882.31;4774967;29;20039;-77
2024/01/14 08:32:20;;;;;;;37.70;19.25;;;;;;;3.10;100.00;100879.22;4778708;29;20040;-76
2024/01/14 08:34:46;;;;;;;47.85;20.23;;;;;;;3.07;100.00;100875.16;4781635;29;20118;-76
2024/01/14 08:37:11;;;;;;;41.97;18.02;;;;;;;3.15;100.00;100870.75;4782165;29;20031;-78
2024/01/14 08:39:36;;;;;;;40.47;18.55;;;;;;;3.22;100.00;100862.75;4774457;29;20046;-76
2024/01/14 08:42:02;;;;;;;45.17;19.98;;;;;;;3.23;100.00;100869.94;4784919;29;20084;-76
2024/01/14 08:44:27;;;;;;;41.20;18.33;;;;;;;3.29;100.00;100863.09;4778549;29;20457;-76
2024/01/14 08:46:54;;;;;;;43.13;19.63;;;;;;;3.18;100.00;100861.78;4778796;29;20043;-74
2024/01/14 08:49:19;;;;;;;39.83;17.98;;;;;;;3.19;100.00;100863.44;4772273;29;20122;-74
2024/01/14 08:51:45;;;;;;;35.78;18.52;;;;;;;3.23;100.00;100856.91;4774155;29;20031;-76
2024/01/14 08:54:10;;;;;;;39.45;17.33;;;;;;;3.26;100.00;100849.91;4789630;29;20040;-73
2024/01/14 08:56:36;;;;;;;39.35;18.60;;;;;;;3.16;100.00;100855.78;4775713;29;20062;-76
2024/01/14 08:59:01;;;;;;;34.90;17.70;;;;;;;3.23;100.00;100845.03;4791432;29;20083;-77
2024/01/14 09:01:27;;;;;;;40.88;16.52;;;;;;;3.17;100.00;100849.94;4788147;29;20088;-76
2024/01/14 09:03:53;;;;;;;44.20;18.95;;;;;;;3.22;100.00;100846.16;4784989;29;20109;-77
2024/01/14 09:06:18;;;;;;;33.83;17.60;;;;;;;3.26;100.00;100847.13;4784636;29;20102;-76
2024/01/14 09:08:43;;;;;;;41.83;19.45;;;;;;;3.19;100.00;100847.66;4782420;29;21674;-76
2024/01/14 09:11:09;;;;;;;39.00;18.08;;;;;;;3.14;100.00;100849.75;4792926;29;20064;-76
2024/01/14 09:13:35;;;;;;;42.28;17.98;;;;;;;3.22;100.00;100846.16;4787616;29;20052;-76
2024/01/14 09:16:01;;;;;;;38.13;19.52;;;;;;;3.04;100.00;100850.94;4783567;29;20034;-76
2024/01/14 09:18:26;;;;;;;39.78;18.77;;;;;;;3.04;100.00;100846.22;4787061;29;20421;-77
2024/01/14 09:20:51;;;;;;;40.80;19.95;;;;;;;3.15;100.00;100841.13;4779845;29;20036;-77
2024/01/14 09:23:17;;;;;;;44.85;21.50;;;;;;;4.36;100.00;100843.69;4779049;29;20042;-76
2024/01/14 09:25:43;;;;;;;43.40;20.10;;;;;;;3.58;100.00;100842.16;4775604;29;20510;-75
2024/01/14 09:28:08;;;;;;;36.10;18.38;;;;;;;3.31;100.00;100835.06;4777696;29;20043;-76
2024/01/14 09:30:33;;;;;;;40.28;18.77;;;;;;;3.42;100.00;100834.41;4787826;29;20045;-76
2024/01/14 09:33:00;;;;;;;39.88;18.20;;;;;;;3.24;100.00;100833.63;4773488;29;20417;-76
2024/01/14 09:35:25;;;;;;;39.47;19.63;;;;;;;3.24;100.00;100827.28;4781522;29;20061;-75
2024/01/14 09:37:50;;;;;;;40.45;18.90;;;;;;;3.15;100.00;100832.03;4778707;29;20091;-75
2024/01/14 09:40:17;;;;;;;39.00;17.90;;;;;;;3.17;100.00;100827.78;4775281;29;20562;-76
2024/01/14 09:42:46;;;;;;;46.47;19.08;;;;;;;3.21;100.00;100842.59;4778709;30;20547;-76
2024/01/14 09:45:13;;;;;;;40.17;19.88;;;;;;;3.24;100.00;100833.63;4774421;29;20050;-76
2024/01/14 09:47:39;;;;;;;39.13;19.98;;;;;;;3.16;100.00;100842.78;4773323;29;20122;-78
2024/01/14 09:50:06;;;;;;;41.08;18.20;;;;;;;3.26;100.00;100839.63;4779181;29;20188;-76
2024/01/14 09:52:32;;;;;;;45.58;18.98;;;;;;;3.30;100.00;100842.56;4781018;29;20034;-76
2024/01/14 09:54:57;;;;;;;41.75;17.77;;;;;;;3.41;100.00;100846.59;4779978;29;20031;-77
2024/01/14 09:57:24;;;;;;;40.72;19.30;;;;;;;3.32;100.00;100834.75;4781535;29;20397;-74
2024/01/14 09:59:50;;;;;;;34.88;17.77;;;;;;;3.16;100.00;100825.34;4775804;29;20031;-74
2024/01/14 10:02:17;;;;;;;40.42;18.25;;;;;;;3.24;100.00;100828.09;4775774;29;20030;-73
2024/01/14 10:04:43;;;;;;;39.38;18.45;;;;;;;3.32;100.00;100820.91;4771695;29;20039;-76
2024/01/14 10:07:09;;;;;;;35.38;17.75;;;;;;;3.43;100.00;100813.88;4779614;29;20119;-74
2024/01/14 10:09:35;;;;;;;41.22;18.40;;;;;;;3.37;100.00;100820.75;4775875;29;20475;-73
2024/01/14 10:12:01;;;;;;;44.30;18.73;;;;;;;3.40;100.00;100817.31;4775669;29;20637;-73
2024/01/14 10:14:27;;;;;;;45.42;19.77;;;;;;;3.32;100.00;100804.31;4776076;29;20204;-73
2024/01/14 10:16:56;;;;;;;35.80;17.17;;;;;;;3.43;100.00;100811.09;4778863;29;20031;-75
2024/01/14 10:19:25;;;;;;;42.42;20.05;;;;;;;3.36;100.00;100808.06;4773650;29;20122;-73
2024/01/14 10:21:53;;;;;;;39.95;18.33;;;;;;;3.36;100.00;100807.25;4777435;29;20115;-76
2024/01/14 10:24:19;;;;;;;35.97;17.17;;;;;;;3.33;100.00;100797.66;4778138;29;20035;-74
2024/01/14 10:26:44;;;;;;;34.75;17.90;;;;;;;3.43;100.00;100791.75;4777388;29;20494;-73
2024/01/14 10:29:10;;;;;;;42.85;18.13;;;;;;;3.35;100.00;100789.84;4775861;29;20122;-73
2024/01/14 10:31:35;;;;;;;43.97;22.52;;;;;;;3.39;100.00;100789.97;4776310;29;20042;-73
2024/01/14 10:34:02;;;;;;;45.60;20.65;;;;;;;3.37;100.00;100787.56;4789073;29;20031;-73
2024/01/14 10:36:28;;;;;;;39.90;17.50;;;;;;;3.38;100.00;100789.16;4774685;29;20806;-75
2024/01/14 10:38:59;;;;;;;42.55;18.75;;;;;;;3.37;100.00;100781.19;4776439;29;20043;-75
2024/01/14 10:41:25;;;;;;;49.42;18.98;;;;;;;3.33;100.00;100774.69;4773806;29;20027;-73
2024/01/14 10:43:51;;;;;;;41.92;19.58;;;;;;;3.44;100.00;100771.25;4770674;29;20380;-73
2024/01/14 10:46:16;;;;;;;40.47;19.95;;;;;;;3.35;100.00;100773.25;4778380;29;20507;-73
2024/01/14 10:48:48;;;;;;;51.83;22.60;;;;;;;3.38;100.00;100760.69;4779491;29;20054;-76
2024/01/14 10:51:17;;;;;;;47.28;19.13;;;;;;;3.37;100.00;100753.53;4790136;29;20041;-73
2024/01/14 10:54:05;;;;;;;40.22;18.67;;;;;;;3.39;100.00;100754.81;4776736;29;20039;-74
2024/01/14 10:56:40;;;;;;;32.55;17.15;;;;;;;3.34;100.00;100755.00;4782917;29;20127;-73
2024/01/14 10:59:08;;;;;;;35.25;17.15;;;;;;;3.32;100.00;100740.69;4776951;29;20111;-73
2024/01/14 11:01:39;;;;;;;35.88;18.95;;;;;;;3.30;100.00;100731.91;4780527;29;20062;-75
2024/01/14 11:04:07;;;;;;;34.72;17.23;;;;;;;3.32;100.00;100726.06;4781858;29;20043;-75
2024/01/14 11:06:39;;;;;;;35.55;17.35;;;;;;;3.35;100.00;100717.91;4780483;29;20069;-75
2024/01/14 11:09:05;;;;;;;36.58;19.05;;;;;;;3.21;100.00;100714.56;4771442;29;20039;-72
2024/01/14 11:11:37;;;;;;;43.78;18.70;;;;;;;3.28;100.00;100711.25;4777777;29;20053;-74
2024/01/14 11:14:16;;;;;;;41.45;17.88;;;;;;;3.36;100.00;100708.44;4781508;29;20046;-73